WetterOnline ( https://www.wetteronline.de )

Wetter aktuell Braunichswalde

Aktuelles Wetter: Gera/Leumnitz (311m)

6-stündlich | Neueste Meldungen
Ortszeit Temperatur Wetter
Sa, 20.04. 14:00 20.2° C wolkenlos
Sa, 20.04. 8:00 6.3° C wolkenlos
Sa, 20.04. 2:00 9.1° C wolkenlos
Fr, 19.04. 20:00 17.0° C wolkenlos
Fr, 19.04. 14:00 20.7° C wolkenlos
Fr, 19.04. 8:00 7.7° C wolkenlos
Fr, 19.04. 2:00 9.1° C wolkenlos
Do, 18.04. 20:00 15.3° C wolkenlos
Ortszeit Temperatur Wetter
Sa, 20.04. 16:30 20.6° C wolkig
Sa, 20.04. 16:20 20.6° C wolkig
Sa, 20.04. 16:10 20.8° C leicht bewölkt
Sa, 20.04. 16:00 20.8° C fast wolkenlos
Sa, 20.04. 15:50 20.8° C fast wolkenlos
Sa, 20.04. 15:40 20.3° C fast wolkenlos
Sa, 20.04. 15:30 20.4° C leicht bewölkt
Sa, 20.04. 15:00 20.5° C leicht bewölkt
Sa, 20.04. 14:30 20.3° C fast wolkenlos
Sa, 20.04. 14:00 20.2° C wolkenlos
Sa, 20.04. 13:30 19.3° C leicht bewölkt
Ortszeit Relative Feuchte Sichtweite
Sa, 20.04. 14:00 35% 30 km
Sa, 20.04. 8:00 76% 22 km
Sa, 20.04. 2:00 60% 35 km
Fr, 19.04. 20:00 39% 45 km
Fr, 19.04. 14:00 30% >70 km
Fr, 19.04. 8:00 71% 24 km
Fr, 19.04. 2:00 62% 30 km
Do, 18.04. 20:00 43% 35 km
Ortszeit Relative Feuchte Sichtweite
Sa, 20.04. 16:30 26% 30 km
Sa, 20.04. 16:20 26% -
Sa, 20.04. 16:10 26% -
Sa, 20.04. 16:00 28% 55 km
Sa, 20.04. 15:50 28% -
Sa, 20.04. 15:40 28% -
Sa, 20.04. 15:30 28% 45 km
Sa, 20.04. 15:00 30% 35 km
Sa, 20.04. 14:30 30% 30 km
Sa, 20.04. 14:00 35% 30 km
Sa, 20.04. 13:30 37% 26 km
Ortszeit Niederschlagsmenge Niederschlagsart
Sa, 20.04. 14:00 0.0 l/m2 in 6 Std. -
Sa, 20.04. 8:00 0.0 l/m2 in 12 Std. -
Sa, 20.04. 2:00 0.0 l/m2 in 6 Std. -
Fr, 19.04. 20:00 0.0 l/m2 in 12 Std. -
Fr, 19.04. 14:00 0.0 l/m2 in 6 Std. -
Fr, 19.04. 8:00 0.0 l/m2 in 12 Std. -
Fr, 19.04. 2:00 0.0 l/m2 in 6 Std. -
Do, 18.04. 20:00 0.0 l/m2 in 12 Std. -
Ortszeit Niederschlagsmenge Niederschlagsart
Sa, 20.04. 16:30 0.0 l/m2 in 1 Std. -
Sa, 20.04. 16:20 keine Meldung -
Sa, 20.04. 16:10 keine Meldung -
Sa, 20.04. 16:00 0.0 l/m2 in 1 Std. -
Sa, 20.04. 15:50 keine Meldung -
Sa, 20.04. 15:40 keine Meldung -
Sa, 20.04. 15:30 0.0 l/m2 in 1 Std. -
Sa, 20.04. 15:00 0.0 l/m2 in 1 Std. -
Sa, 20.04. 14:30 0.0 l/m2 in 1 Std. -
Sa, 20.04. 14:00 0.0 l/m2 in 1 Std. -
Sa, 20.04. 13:30 0.0 l/m2 in 1 Std. -
Ortszeit Stärke Spitze Richtung
km/h Bft. km/h Grad Sektor
Sa, 20.04. 14:00 14 3 25 50° NO
Sa, 20.04. 8:00 4 1 11 200° S
Sa, 20.04. 2:00 6 1 26 100° O
Fr, 19.04. 20:00 18 3 40 60° NO
Fr, 19.04. 14:00 22 4 36 90° O
Fr, 19.04. 8:00 4 1 25 310° NW
Fr, 19.04. 2:00 17 3 28 90° O
Do, 18.04. 20:00 14 3 47 80° O
Ortszeit Stärke Spitze Richtung
km/h Bft. km/h Grad Sektor
Sa, 20.04. 16:30 13 3 20 30° NO
Sa, 20.04. 16:20 13 3 - 30° NO
Sa, 20.04. 16:10 11 2 - 40° NO
Sa, 20.04. 16:00 13 3 28 40° NO
Sa, 20.04. 15:50 13 3 - 40° NO
Sa, 20.04. 15:40 13 3 - 40° NO
Sa, 20.04. 15:30 13 3 28 40° NO
Sa, 20.04. 15:00 11 2 25 40° NO
Sa, 20.04. 14:30 14 3 25 40° NO
Sa, 20.04. 14:00 14 3 25 50° NO
Sa, 20.04. 13:30 14 3 25 40° NO
Ortszeit Untergrenze Bedeckung Gattung
total tief tief mittel hoch
Sa, 20.04. 14:00 - 0/8 0/8 - - -
Sa, 20.04. 8:00 - 0/8 0/8 - - -
Sa, 20.04. 2:00 - 0/8 0/8 - - -
Fr, 19.04. 20:00 - 0/8 0/8 - - -
Fr, 19.04. 14:00 - 0/8 0/8 - - -
Fr, 19.04. 8:00 - 0/8 0/8 - - -
Fr, 19.04. 2:00 - 0/8 0/8 - - -
Do, 18.04. 20:00 - 0/8 0/8 - - -
Ortszeit Bedeckungsgrad in Achtel und Wolkenuntergrenze
Sa, 20.04. 16:30 7(7500m)
Sa, 20.04. 16:20 7(7500m)
Sa, 20.04. 16:10 5(7500m)
Sa, 20.04. 16:00 1(9000m) 4(9000m)
Sa, 20.04. 15:50 1(9000m)
Sa, 20.04. 15:40 2(9000m)
Sa, 20.04. 15:30 2(8700m) 3(9000m)
Sa, 20.04. 15:00 7(9000m)
Sa, 20.04. 14:30 1(9000m)
Sa, 20.04. 14:00 keine Wolken
Sa, 20.04. 13:30 3(9000m)
Ortszeit Luftdruck NN (hPa) Tendenz (hPa in 3 Std.)
Sa, 20.04. 14:00 1029 - 0,8
Sa, 20.04. 8:00 1032 + 0,5
Sa, 20.04. 2:00 1031 0,0
Fr, 19.04. 20:00 1029 - 0,2
Fr, 19.04. 14:00 1030 - 0,6
Fr, 19.04. 8:00 1032 + 1,2
Fr, 19.04. 2:00 1030 + 0,6
Do, 18.04. 20:00 1028 + 0,8
Ortszeit Luftdruck NN (hPa) Tendenz (hPa in 3 Std.)
Sa, 20.04. 16:30 1027 - 1,7
Sa, 20.04. 16:20 1027 keine Meldung
Sa, 20.04. 16:10 1028 keine Meldung
Sa, 20.04. 16:00 1028 - 1,4
Sa, 20.04. 15:50 1028 keine Meldung
Sa, 20.04. 15:40 1028 keine Meldung
Sa, 20.04. 15:30 1028 - 1,1
Sa, 20.04. 15:00 1028 - 1,1
Sa, 20.04. 14:30 1029 - 1,1
Sa, 20.04. 14:00 1029 - 0,8
Sa, 20.04. 13:30 1029 - 0,7
Ortszeit Schneehöhe (cm)
Sa, 20.04. 14:00 0
Sa, 20.04. 8:00 0
Sa, 20.04. 2:00 0
Fr, 19.04. 20:00 0
Fr, 19.04. 14:00 0
Fr, 19.04. 8:00 0
Fr, 19.04. 2:00 0
Do, 18.04. 20:00 0
Ortszeit Schneehöhe (cm)
Sa, 20.04. 16:30 0
Sa, 20.04. 16:20 0
Sa, 20.04. 16:10 0
Sa, 20.04. 16:00 0
Sa, 20.04. 15:50 0
Sa, 20.04. 15:40 0
Sa, 20.04. 15:30 0
Sa, 20.04. 15:00 0
Sa, 20.04. 14:30 0
Sa, 20.04. 14:00 0
Sa, 20.04. 13:30 0
Link zu dieser Seite / Seite empfehlen

Das Wetter in ...